createdAt,value
2023-04-23T00:02:19.269Z,50.73
2023-04-23T00:04:53.107Z,50.97
2023-04-23T00:07:24.112Z,50.80
2023-04-23T00:09:56.068Z,50.60
2023-04-23T00:12:23.357Z,50.87
2023-04-23T00:14:50.646Z,50.78
2023-04-23T00:17:17.466Z,50.71
2023-04-23T00:19:44.264Z,50.93
2023-04-23T00:22:11.028Z,50.90
2023-04-23T00:24:38.933Z,50.83
2023-04-23T00:27:06.277Z,51.27
2023-04-23T00:29:33.479Z,51.16
2023-04-23T00:32:00.352Z,51.24
2023-04-23T00:34:27.237Z,50.97
2023-04-23T00:36:54.053Z,51.27
2023-04-23T00:39:22.672Z,51.29
2023-04-23T00:41:49.856Z,51.08
2023-04-23T00:44:16.751Z,51.40
2023-04-23T00:46:44.009Z,51.23
2023-04-23T00:49:11.391Z,51.38
2023-04-23T00:51:38.161Z,51.32
2023-04-23T00:54:05.047Z,51.38
2023-04-23T00:56:32.126Z,51.40
2023-04-23T00:58:59.031Z,51.37
2023-04-23T01:01:25.986Z,51.33
2023-04-23T01:03:54.186Z,51.19
2023-04-23T01:06:21.514Z,51.57
2023-04-23T01:08:48.316Z,51.17
2023-04-23T01:11:15.797Z,51.39
2023-04-23T01:13:43.401Z,51.63
2023-04-23T01:16:11.433Z,51.54
2023-04-23T01:18:40.828Z,51.54
2023-04-23T01:21:09.869Z,51.72
2023-04-23T01:23:36.636Z,51.50
2023-04-23T01:26:03.578Z,51.92
2023-04-23T01:28:30.669Z,51.63
2023-04-23T01:30:59.164Z,51.77
2023-04-23T01:33:26.699Z,51.78
2023-04-23T01:35:55.082Z,52.01
2023-04-23T01:38:23.616Z,51.97
2023-04-23T01:40:50.388Z,51.95
2023-04-23T01:43:17.808Z,52.26
2023-04-23T01:45:44.703Z,52.32
2023-04-23T01:48:11.511Z,52.61
2023-04-23T01:50:38.985Z,52.70
2023-04-23T01:53:05.976Z,52.96
2023-04-23T01:55:36.765Z,52.78
2023-04-23T01:58:03.732Z,53.19
2023-04-23T02:00:30.907Z,52.85
2023-04-23T02:02:57.767Z,53.13
2023-04-23T02:05:28.768Z,53.18
2023-04-23T02:07:56.120Z,53.30
2023-04-23T02:10:22.916Z,53.71
2023-04-23T02:12:49.669Z,53.74
2023-04-23T02:15:16.540Z,54.09
2023-04-23T02:17:43.648Z,54.18
2023-04-23T02:20:11.993Z,54.46
2023-04-23T02:22:41.200Z,54.39
2023-04-23T02:25:08.915Z,54.49
2023-04-23T02:27:35.972Z,54.33
2023-04-23T02:30:08.382Z,54.61
2023-04-23T02:32:37.154Z,54.53
2023-04-23T02:35:06.353Z,54.76
2023-04-23T02:37:33.581Z,54.90
2023-04-23T02:40:00.341Z,55.20
2023-04-23T02:42:27.185Z,55.32
2023-04-23T02:44:54.005Z,55.42
2023-04-23T02:47:20.785Z,55.57
2023-04-23T02:49:47.532Z,55.61
2023-04-23T02:52:14.344Z,55.75
2023-04-23T02:54:41.214Z,55.73
2023-04-23T02:57:08.449Z,55.85
2023-04-23T02:59:35.544Z,55.87
2023-04-23T03:02:02.389Z,55.92
2023-04-23T03:04:29.217Z,56.05
2023-04-23T03:06:56.539Z,56.13
2023-04-23T03:09:23.327Z,56.11
2023-04-23T03:11:50.097Z,56.13
2023-04-23T03:14:16.905Z,56.08
2023-04-23T03:16:43.695Z,56.36
2023-04-23T03:19:10.705Z,56.31
2023-04-23T03:21:37.492Z,56.29
2023-04-23T03:24:04.393Z,56.52
2023-04-23T03:26:31.307Z,56.50
2023-04-23T03:28:58.102Z,56.27
2023-04-23T03:31:24.945Z,56.36
2023-04-23T03:33:51.834Z,56.49
2023-04-23T03:36:18.612Z,56.46
2023-04-23T03:38:45.354Z,56.38
2023-04-23T03:41:12.152Z,56.68
2023-04-23T03:43:38.951Z,56.62
2023-04-23T03:46:06.490Z,56.52
2023-04-23T03:48:33.346Z,56.86
2023-04-23T03:51:00.197Z,56.91
2023-04-23T03:53:27.061Z,57.10
2023-04-23T03:55:53.831Z,56.88
2023-04-23T03:58:20.695Z,57.12
2023-04-23T04:00:47.476Z,57.06
2023-04-23T04:03:14.423Z,57.13
2023-04-23T04:05:41.551Z,57.40
2023-04-23T04:08:08.689Z,57.20
2023-04-23T04:10:35.564Z,57.50
2023-04-23T04:13:02.398Z,57.24
2023-04-23T04:15:29.209Z,57.52
2023-04-23T04:17:56.052Z,57.56
2023-04-23T04:20:22.955Z,57.62
2023-04-23T04:22:49.859Z,57.62
2023-04-23T04:25:16.603Z,57.65
2023-04-23T04:27:43.722Z,57.61
2023-04-23T04:30:10.962Z,57.50
2023-04-23T04:32:38.751Z,57.46
2023-04-23T04:35:09.189Z,57.20
2023-04-23T04:37:36.296Z,57.48
2023-04-23T04:40:03.696Z,57.46
2023-04-23T04:42:30.988Z,57.50
2023-04-23T04:44:59.488Z,57.37
2023-04-23T04:47:26.449Z,57.44
2023-04-23T04:49:57.006Z,57.13
2023-04-23T04:52:24.601Z,57.24
2023-04-23T04:54:51.448Z,57.23
2023-04-23T04:57:19.943Z,57.25
2023-04-23T04:59:46.799Z,56.97
2023-04-23T05:02:14.088Z,56.88
2023-04-23T05:04:41.206Z,56.67
2023-04-23T05:07:08.318Z,56.58
2023-04-23T05:09:35.172Z,56.63
2023-04-23T05:12:02.060Z,56.55
2023-04-23T05:14:28.941Z,56.36
2023-04-23T05:16:55.958Z,56.25
2023-04-23T05:19:23.581Z,56.27
2023-04-23T05:21:50.469Z,56.18
2023-04-23T05:24:17.294Z,55.96
2023-04-23T05:26:44.182Z,56.00
2023-04-23T05:29:12.953Z,56.11
2023-04-23T05:31:39.806Z,56.05
2023-04-23T05:34:06.622Z,55.92
2023-04-23T05:36:33.466Z,56.05
2023-04-23T05:39:00.571Z,55.89
2023-04-23T05:41:27.501Z,55.97
2023-04-23T05:43:54.253Z,56.28
2023-04-23T05:46:21.071Z,55.95
2023-04-23T05:48:47.874Z,55.95
2023-04-23T05:51:14.631Z,55.71
2023-04-23T05:53:41.440Z,55.41
2023-04-23T05:56:08.218Z,55.56
2023-04-23T05:58:35.160Z,55.68
2023-04-23T06:01:02.951Z,55.50
2023-04-23T06:03:30.365Z,55.71
2023-04-23T06:05:57.351Z,55.80
2023-04-23T06:08:25.336Z,55.67
2023-04-23T06:10:52.249Z,55.92
2023-04-23T06:13:19.029Z,55.80
2023-04-23T06:15:45.898Z,55.80
2023-04-23T06:18:13.102Z,55.84
2023-04-23T06:20:39.956Z,55.97
2023-04-23T06:23:06.749Z,55.72
2023-04-23T06:25:33.516Z,55.72
2023-04-23T06:28:00.322Z,55.82
2023-04-23T06:30:27.242Z,55.90
2023-04-23T06:32:54.097Z,55.67
2023-04-23T06:35:20.917Z,55.72
2023-04-23T06:37:47.767Z,55.58
2023-04-23T06:40:15.078Z,55.69
2023-04-23T06:42:41.818Z,55.72
2023-04-23T06:45:09.189Z,55.79
2023-04-23T06:47:36.008Z,55.94
2023-04-23T06:50:02.884Z,56.04
2023-04-23T06:52:29.768Z,55.85
2023-04-23T06:54:56.513Z,55.68
2023-04-23T06:57:23.290Z,55.77
2023-04-23T06:59:50.204Z,55.83
2023-04-23T07:02:17.088Z,55.83
2023-04-23T07:04:44.539Z,55.88
2023-04-23T07:07:12.011Z,55.85
2023-04-23T07:09:38.792Z,55.78
2023-04-23T07:12:06.486Z,55.88
2023-04-23T07:14:33.412Z,55.71
2023-04-23T07:17:00.513Z,55.89
2023-04-23T07:19:27.405Z,56.17
2023-04-23T07:21:54.234Z,56.12
2023-04-23T07:24:21.037Z,56.21
2023-04-23T07:26:47.854Z,56.18
2023-04-23T07:29:15.353Z,56.21
2023-04-23T07:31:42.233Z,55.85
2023-04-23T07:34:09.822Z,56.01
2023-04-23T07:36:37.203Z,55.50
2023-04-23T07:39:05.274Z,55.83
2023-04-23T07:41:32.829Z,56.11
2023-04-23T07:43:59.685Z,56.04
2023-04-23T07:46:26.490Z,55.98
2023-04-23T07:48:53.478Z,55.88
2023-04-23T07:51:22.327Z,55.95
2023-04-23T07:53:51.132Z,56.05
2023-04-23T07:56:17.939Z,55.89
2023-04-23T07:58:44.729Z,55.89
2023-04-23T08:01:11.530Z,55.61
2023-04-23T08:03:38.457Z,55.58
2023-04-23T08:06:05.610Z,55.41
2023-04-23T08:08:32.407Z,54.95
2023-04-23T08:10:59.309Z,54.62
2023-04-23T08:13:26.108Z,54.29
2023-04-23T08:15:52.954Z,53.94
2023-04-23T08:18:19.757Z,53.32
2023-04-23T08:20:46.555Z,52.92
2023-04-23T08:23:13.396Z,52.63
2023-04-23T08:25:40.359Z,52.31
2023-04-23T08:28:08.374Z,52.49
2023-04-23T08:30:35.184Z,51.76
2023-04-23T08:33:02.236Z,51.95
2023-04-23T08:35:29.094Z,50.22
2023-04-23T08:37:56.197Z,50.76
2023-04-23T08:40:23.084Z,50.24
2023-04-23T08:43:03.170Z,50.71
2023-04-23T08:45:30.899Z,50.90
2023-04-23T08:48:02.189Z,51.11
2023-04-23T08:50:30.983Z,50.67
2023-04-23T08:52:58.887Z,50.99
2023-04-23T08:55:26.144Z,51.33
2023-04-23T08:57:53.190Z,51.70
2023-04-23T09:00:23.077Z,50.73
2023-04-23T09:02:50.613Z,50.87
2023-04-23T09:05:17.864Z,51.07
2023-04-23T09:07:44.968Z,50.91
2023-04-23T09:10:18.256Z,50.69
2023-04-23T09:12:46.702Z,50.42
2023-04-23T09:15:13.662Z,50.58
2023-04-23T09:17:43.901Z,50.80
2023-04-23T09:20:12.699Z,50.74
2023-04-23T09:22:55.203Z,50.57
2023-04-23T09:25:23.889Z,49.98
2023-04-23T09:27:52.729Z,49.45
2023-04-23T09:30:20.174Z,48.96
2023-04-23T09:32:47.597Z,49.30
2023-04-23T09:35:16.608Z,48.94
2023-04-23T09:37:49.509Z,49.01
2023-04-23T09:40:19.906Z,48.58
2023-04-23T09:42:55.747Z,48.66
2023-04-23T09:45:25.033Z,48.77
2023-04-23T09:47:57.881Z,49.22
2023-04-23T09:50:37.037Z,49.19
2023-04-23T09:53:05.526Z,48.88
2023-04-23T09:55:38.870Z,48.85
2023-04-23T09:58:11.482Z,48.65
2023-04-23T10:00:40.012Z,47.90
2023-04-23T10:03:09.489Z,47.63
2023-04-23T10:08:13.794Z,47.70
2023-04-23T10:10:56.790Z,47.22
2023-04-23T10:13:28.459Z,47.54
2023-04-23T10:15:59.094Z,47.12
2023-04-23T10:18:33.642Z,46.83
2023-04-23T10:21:03.264Z,46.95
2023-04-23T10:23:30.914Z,47.26
2023-04-23T10:25:59.503Z,46.91
2023-04-23T10:28:31.874Z,46.07
2023-04-23T10:30:59.781Z,45.35
2023-04-23T10:33:31.907Z,45.45
2023-04-23T10:36:00.894Z,46.25
2023-04-23T10:38:28.350Z,46.03
2023-04-23T10:40:58.723Z,46.19
2023-04-23T10:43:25.708Z,45.74
2023-04-23T10:45:53.741Z,44.93
2023-04-23T10:48:21.434Z,44.68
2023-04-23T10:51:14.624Z,44.27
2023-04-23T10:53:46.461Z,44.76
2023-04-23T10:56:13.443Z,44.87
2023-04-23T10:58:51.261Z,44.68
2023-04-23T11:01:18.969Z,44.57
2023-04-23T11:03:47.650Z,44.39
2023-04-23T11:06:48.677Z,44.76
2023-04-23T11:09:42.572Z,44.64
2023-04-23T11:12:34.864Z,44.53
2023-04-23T11:15:12.710Z,44.63
2023-04-23T11:17:39.393Z,44.25
2023-04-23T11:20:14.330Z,43.91
2023-04-23T11:22:45.860Z,42.64
2023-04-23T11:25:24.763Z,43.05
2023-04-23T11:27:53.944Z,42.58
2023-04-23T11:30:26.390Z,43.04
2023-04-23T11:32:55.340Z,42.49
2023-04-23T11:35:28.417Z,42.74
2023-04-23T11:37:56.340Z,42.11
2023-04-23T11:40:24.294Z,41.30
2023-04-23T11:42:54.786Z,41.13
2023-04-23T11:45:27.968Z,40.71
2023-04-23T11:47:57.152Z,40.76
2023-04-23T11:50:33.543Z,40.43
2023-04-23T11:53:10.374Z,40.24
2023-04-23T11:55:38.284Z,40.39
2023-04-23T11:58:05.728Z,40.67
2023-04-23T12:00:32.521Z,40.22
2023-04-23T12:03:02.362Z,40.66
2023-04-23T12:05:40.130Z,40.17
2023-04-23T12:08:18.929Z,40.96
2023-04-23T12:10:51.070Z,40.81
2023-04-23T12:13:22.253Z,40.91
2023-04-23T12:15:57.773Z,40.26
2023-04-23T12:18:29.129Z,40.58
2023-04-23T12:21:09.523Z,40.72
2023-04-23T12:23:38.237Z,40.63
2023-04-23T12:26:11.377Z,40.61
2023-04-23T12:28:55.808Z,40.42
2023-04-23T12:31:23.837Z,39.73
2023-04-23T12:34:04.718Z,39.91
2023-04-23T12:36:32.242Z,39.40
2023-04-23T12:39:24.923Z,39.49
2023-04-23T12:42:13.010Z,39.71
2023-04-23T12:44:40.249Z,39.65
2023-04-23T12:47:09.564Z,39.44
2023-04-23T12:49:39.159Z,39.25
2023-04-23T12:52:07.555Z,39.25
2023-04-23T12:54:37.370Z,38.91
2023-04-23T12:57:06.856Z,38.69
2023-04-23T12:59:34.127Z,38.67
2023-04-23T13:02:02.286Z,38.51
2023-04-23T13:04:32.880Z,38.69
2023-04-23T13:06:59.687Z,38.44
2023-04-23T13:09:28.278Z,38.68
2023-04-23T13:11:55.753Z,38.32
2023-04-23T13:14:22.584Z,38.31
2023-04-23T13:16:50.056Z,38.69
2023-04-23T13:19:17.207Z,38.55
2023-04-23T13:21:45.059Z,38.83
2023-04-23T13:24:11.989Z,38.69
2023-04-23T13:26:38.936Z,38.85
2023-04-23T13:29:06.062Z,39.14
2023-04-23T13:31:34.107Z,38.93
2023-04-23T13:34:03.604Z,38.73
2023-04-23T13:36:30.650Z,38.93
2023-04-23T13:38:57.493Z,38.86
2023-04-23T13:41:24.313Z,38.47
2023-04-23T13:43:51.176Z,38.20
2023-04-23T13:46:19.555Z,38.50
2023-04-23T13:48:46.398Z,38.53
2023-04-23T13:51:26.455Z,38.37
2023-04-23T13:54:00.089Z,37.83
2023-04-23T13:56:27.560Z,38.08
2023-04-23T13:59:02.262Z,38.28
2023-04-23T14:01:31.992Z,38.34
2023-04-23T14:03:58.919Z,38.45
2023-04-23T14:06:25.753Z,38.65
2023-04-23T14:08:52.578Z,38.77
2023-04-23T14:11:19.374Z,39.04
2023-04-23T14:13:46.112Z,39.40
2023-04-23T14:16:13.201Z,39.83
2023-04-23T14:18:39.976Z,40.08
2023-04-23T14:21:07.897Z,40.42
2023-04-23T14:23:49.292Z,40.45
2023-04-23T14:26:47.813Z,40.92
2023-04-23T14:29:49.063Z,40.86
2023-04-23T14:32:16.008Z,41.09
2023-04-23T14:34:44.402Z,41.26
2023-04-23T14:37:11.298Z,40.84
2023-04-23T14:39:38.123Z,40.97
2023-04-23T14:42:05.175Z,41.55
2023-04-23T14:44:31.970Z,41.53
2023-04-23T14:46:59.094Z,41.93
2023-04-23T14:49:25.953Z,42.38
2023-04-23T14:51:57.951Z,42.63
2023-04-23T14:54:24.898Z,42.88
2023-04-23T14:56:52.133Z,43.38
2023-04-23T14:59:19.219Z,43.17
2023-04-23T15:01:46.105Z,43.29
2023-04-23T15:04:16.193Z,42.90
2023-04-23T15:06:43.001Z,43.51
2023-04-23T15:09:09.805Z,43.77
2023-04-23T15:11:38.602Z,43.70
2023-04-23T15:14:19.630Z,43.37
2023-04-23T15:16:49.307Z,44.05
2023-04-23T15:19:18.825Z,44.10
2023-04-23T15:21:46.618Z,43.46
2023-04-23T15:24:13.704Z,43.88
2023-04-23T15:26:40.888Z,43.47
2023-04-23T15:29:10.558Z,43.43
2023-04-23T15:31:38.450Z,43.95
2023-04-23T15:34:08.164Z,43.19
2023-04-23T15:36:38.107Z,43.18
2023-04-23T15:39:06.575Z,43.24
2023-04-23T15:41:36.632Z,43.18
2023-04-23T15:44:04.685Z,42.94
2023-04-23T15:46:31.505Z,42.79
2023-04-23T15:48:58.295Z,43.07
2023-04-23T15:51:25.153Z,42.66
2023-04-23T15:53:51.911Z,42.36
2023-04-23T15:56:18.648Z,42.85
2023-04-23T15:58:45.439Z,43.00
2023-04-23T16:01:12.339Z,42.63
2023-04-23T16:03:39.298Z,42.50
2023-04-23T16:06:06.488Z,42.54
2023-04-23T16:08:33.342Z,42.36
2023-04-23T16:11:00.257Z,42.03
2023-04-23T16:13:29.078Z,42.26
2023-04-23T16:15:56.099Z,42.40
2023-04-23T16:18:22.962Z,42.62
2023-04-23T16:20:49.728Z,42.64
2023-04-23T16:23:16.487Z,42.47
2023-04-23T16:25:44.081Z,42.66
2023-04-23T16:28:13.154Z,42.35
2023-04-23T16:30:40.125Z,42.37
2023-04-23T16:33:06.975Z,42.60
2023-04-23T16:35:33.872Z,42.21
2023-04-23T16:38:00.722Z,42.15
2023-04-23T16:40:28.658Z,42.33
2023-04-23T16:42:55.621Z,42.50
2023-04-23T16:45:23.174Z,42.48
2023-04-23T16:47:50.808Z,42.33
2023-04-23T16:50:17.659Z,42.44
2023-04-23T16:52:44.532Z,42.50
2023-04-23T16:55:11.382Z,42.44
2023-04-23T16:57:38.356Z,42.55
2023-04-23T17:00:06.130Z,42.53
2023-04-23T17:02:34.328Z,42.60
2023-04-23T17:05:01.944Z,42.63
2023-04-23T17:07:29.056Z,42.49
2023-04-23T17:09:55.921Z,42.20
2023-04-23T17:12:22.788Z,42.61
2023-04-23T17:14:49.641Z,42.65
2023-04-23T17:17:16.584Z,42.67
2023-04-23T17:19:43.467Z,42.40
2023-04-23T17:22:10.666Z,42.40
2023-04-23T17:24:39.088Z,42.80
2023-04-23T17:27:06.290Z,42.77
2023-04-23T17:29:33.099Z,43.04
2023-04-23T17:32:01.042Z,42.89
2023-04-23T17:34:27.962Z,43.13
2023-04-23T17:36:54.794Z,43.01
2023-04-23T17:39:23.555Z,43.63
2023-04-23T17:41:50.394Z,43.65
2023-04-23T17:44:17.226Z,43.77
2023-04-23T17:46:44.026Z,43.55
2023-04-23T17:49:10.824Z,43.81
2023-04-23T17:51:37.845Z,43.88
2023-04-23T17:54:05.252Z,43.90
2023-04-23T17:56:32.165Z,44.16
2023-04-23T17:58:58.920Z,43.82
2023-04-23T18:01:25.901Z,44.00
2023-04-23T18:03:53.405Z,43.96
2023-04-23T18:06:20.504Z,44.31
2023-04-23T18:08:47.306Z,44.07
2023-04-23T18:11:14.121Z,44.39
2023-04-23T18:13:40.966Z,44.07
2023-04-23T18:16:07.715Z,44.24
2023-04-23T18:18:34.520Z,44.64
2023-04-23T18:21:01.937Z,44.66
2023-04-23T18:23:29.295Z,44.85
2023-04-23T18:25:56.563Z,44.61
2023-04-23T18:28:23.338Z,44.70
2023-04-23T18:30:50.130Z,44.81
2023-04-23T18:33:36.618Z,44.97
2023-04-23T18:36:29.201Z,44.82
2023-04-23T18:38:56.426Z,45.14
2023-04-23T18:41:23.532Z,44.91
2023-04-23T18:43:50.392Z,45.15
2023-04-23T18:46:17.635Z,44.87
2023-04-23T18:49:06.460Z,44.97
2023-04-23T18:51:44.792Z,45.28
2023-04-23T18:54:15.006Z,45.35
2023-04-23T18:56:42.012Z,45.13
2023-04-23T18:59:08.783Z,45.42
2023-04-23T19:01:36.105Z,45.29
2023-04-23T19:04:03.414Z,45.34
2023-04-23T19:06:31.135Z,45.36
2023-04-23T19:08:58.397Z,45.45
2023-04-23T19:11:27.029Z,45.59
2023-04-23T19:13:53.811Z,45.70
2023-04-23T19:16:20.733Z,45.52
2023-04-23T19:18:47.838Z,45.69
2023-04-23T19:21:14.689Z,45.75
2023-04-23T19:23:41.469Z,45.54
2023-04-23T19:26:08.252Z,45.86
2023-04-23T19:28:35.144Z,45.79
2023-04-23T19:31:03.423Z,45.73
2023-04-23T19:33:30.259Z,45.70
2023-04-23T19:35:57.054Z,45.98
2023-04-23T19:38:23.841Z,45.91
2023-04-23T19:40:51.157Z,45.71
2023-04-23T19:43:18.842Z,45.73
2023-04-23T19:45:46.498Z,45.87
2023-04-23T19:48:13.272Z,45.85
2023-04-23T19:50:40.440Z,46.01
2023-04-23T19:53:07.212Z,45.75
2023-04-23T19:55:34.059Z,45.74
2023-04-23T19:58:01.164Z,45.98
2023-04-23T20:00:30.578Z,45.79
2023-04-23T20:02:58.067Z,46.04
2023-04-23T20:05:25.603Z,46.05
2023-04-23T20:07:52.534Z,46.00
2023-04-23T20:10:19.679Z,46.01
2023-04-23T20:12:46.510Z,45.90
2023-04-23T20:15:13.659Z,45.82
2023-04-23T20:17:40.798Z,45.99
2023-04-23T20:20:09.349Z,45.95
2023-04-23T20:22:36.094Z,46.13
2023-04-23T20:25:03.414Z,46.18
2023-04-23T20:27:31.016Z,46.07
2023-04-23T20:29:57.837Z,46.25
2023-04-23T20:32:24.674Z,46.09
2023-04-23T20:34:52.542Z,45.99
2023-04-23T20:37:22.001Z,46.20
2023-04-23T20:39:49.709Z,46.22
2023-04-23T20:42:16.547Z,46.05
2023-04-23T20:44:45.451Z,46.35
2023-04-23T20:47:13.107Z,46.22
2023-04-23T20:49:40.371Z,46.21
2023-04-23T20:52:07.531Z,46.28
2023-04-23T20:54:34.846Z,46.40
2023-04-23T20:57:02.876Z,46.31
2023-04-23T20:59:29.936Z,46.12
2023-04-23T21:01:58.787Z,46.47
2023-04-23T21:04:28.253Z,46.60
2023-04-23T21:06:55.188Z,46.65
2023-04-23T21:09:22.082Z,46.60
2023-04-23T21:11:48.982Z,46.77
2023-04-23T21:14:15.828Z,46.64
2023-04-23T21:16:42.582Z,46.69
2023-04-23T21:19:09.373Z,46.56
2023-04-23T21:21:36.272Z,46.96
2023-04-23T21:24:03.136Z,46.77
2023-04-23T21:26:31.219Z,46.75
2023-04-23T21:28:58.247Z,47.04
2023-04-23T21:31:39.842Z,47.44
2023-04-23T21:34:06.708Z,47.34
2023-04-23T21:36:33.474Z,47.48
2023-04-23T21:39:00.293Z,47.66
2023-04-23T21:41:27.086Z,48.02
2023-04-23T21:43:53.906Z,48.18
2023-04-23T21:46:23.211Z,48.01
2023-04-23T21:48:53.300Z,48.17
2023-04-23T21:51:22.297Z,48.38
2023-04-23T21:53:49.535Z,48.34
2023-04-23T21:56:16.843Z,48.59
2023-04-23T21:58:44.662Z,48.84
2023-04-23T22:01:11.507Z,48.90
2023-04-23T22:03:42.319Z,49.16
2023-04-23T22:06:09.784Z,49.23
2023-04-23T22:08:40.301Z,49.41
2023-04-23T22:11:10.931Z,49.57
2023-04-23T22:13:39.151Z,49.53
2023-04-23T22:16:13.363Z,50.02
2023-04-23T22:18:47.682Z,50.11
2023-04-23T22:21:14.560Z,50.00
2023-04-23T22:23:41.331Z,50.19
2023-04-23T22:26:08.112Z,50.44
2023-04-23T22:28:34.863Z,50.46
2023-04-23T22:31:01.668Z,50.59
2023-04-23T22:33:29.292Z,50.70
2023-04-23T22:35:56.541Z,50.66
2023-04-23T22:38:23.338Z,50.72
2023-04-23T22:40:50.108Z,50.80
2023-04-23T22:43:16.878Z,50.93
2023-04-23T22:45:43.680Z,50.46
2023-04-23T22:48:10.651Z,50.90
2023-04-23T22:50:39.913Z,51.04
2023-04-23T22:53:06.820Z,51.09
2023-04-23T22:55:33.863Z,51.01
2023-04-23T22:58:00.843Z,51.04
2023-04-23T23:00:27.905Z,51.04
2023-04-23T23:02:54.778Z,51.00
2023-04-23T23:05:21.674Z,50.88
2023-04-23T23:07:48.416Z,50.79
2023-04-23T23:10:15.494Z,50.77
2023-04-23T23:12:42.246Z,51.01
2023-04-23T23:15:09.419Z,50.90
2023-04-23T23:17:36.259Z,50.86
2023-04-23T23:20:04.353Z,50.90
2023-04-23T23:22:31.136Z,51.00
2023-04-23T23:24:57.915Z,50.83
2023-04-23T23:27:24.689Z,50.97
2023-04-23T23:29:51.457Z,50.85
2023-04-23T23:32:18.372Z,51.07
2023-04-23T23:34:45.387Z,50.92
2023-04-23T23:37:12.137Z,50.79
2023-04-23T23:39:39.059Z,51.00
2023-04-23T23:42:05.906Z,50.80
2023-04-23T23:44:32.770Z,50.86
2023-04-23T23:47:00.321Z,51.14
2023-04-23T23:49:27.217Z,50.91
2023-04-23T23:51:54.038Z,50.96
2023-04-23T23:54:20.856Z,50.95
2023-04-23T23:56:47.727Z,50.83
2023-04-23T23:59:14.535Z,51.07
